Time;durP1;ratioP1;P1;durP2;ratioP2;P2;SDS_P1;SDS_P2;PMS_P1;PMS_P2;Temp;Humidity;BMP_temperature;BMP_pressure;BME280_temperature;BME280_humidity;BME280_pressure;Samples;Min_cycle;Max_cycle;Signal;HPM_P1;HPM_P2
2024/02/10 00:00:41;;;;;;;1.13;1.13;;;;;;;;;;5015139;28;20705;-80
2024/02/10 00:03:10;;;;;;;1.58;1.48;;;;;;;;;;5013586;28;20227;-80
2024/02/10 00:05:39;;;;;;;1.52;1.42;;;;;;;;;;5015745;28;20217;-80
2024/02/10 00:08:07;;;;;;;1.10;1.00;;;;;;;;;;5007466;28;20650;-80
2024/02/10 00:10:34;;;;;;;1.25;1.00;;;;;;;;;;5023631;28;20241;-80
2024/02/10 00:13:02;;;;;;;1.08;1.08;;;;;;;;;;5014580;28;20685;-80
2024/02/10 00:15:29;;;;;;;1.15;1.05;;;;;;;;;;5014901;28;20277;-80
2024/02/10 00:17:57;;;;;;;0.77;0.77;;;;;;;;;;5015172;28;20245;-81
2024/02/10 00:20:26;;;;;;;1.08;1.05;;;;;;;;;;5014950;28;20270;-80
2024/02/10 00:22:54;;;;;;;0.80;0.80;;;;;;;;;;5024713;28;20589;-80
2024/02/10 00:25:23;;;;;;;0.68;0.68;;;;;;;;;;5026218;28;20250;-78
2024/02/10 00:27:53;;;;;;;1.02;1.00;;;;;;;;;;5025277;28;20198;-80
2024/02/10 00:30:23;;;;;;;0.75;0.75;;;;;;;;;;5020569;28;20210;-80
2024/02/10 00:32:51;;;;;;;0.80;0.80;;;;;;;;;;5017927;28;20207;-80
2024/02/10 00:35:21;;;;;;;1.20;0.80;;;;;;;;;;5021590;28;20227;-80
2024/02/10 00:37:50;;;;;;;1.00;1.00;;;;;;;;;;5023106;28;20226;-80
2024/02/10 00:40:18;;;;;;;0.70;0.70;;;;;;;;;;5015088;28;20274;-80
2024/02/10 00:42:45;;;;;;;1.00;1.00;;;;;;;;;;5014638;28;20233;-80
2024/02/10 00:45:13;;;;;;;1.33;0.88;;;;;;;;;;5019684;28;20755;-80
2024/02/10 00:47:44;;;;;;;1.85;1.75;;;;;;;;;;5021905;28;20582;-80
2024/02/10 00:50:12;;;;;;;0.90;0.90;;;;;;;;;;5027168;28;20203;-80
2024/02/10 00:52:40;;;;;;;0.75;0.75;;;;;;;;;;5018298;28;20207;-80
2024/02/10 00:55:09;;;;;;;0.73;0.70;;;;;;;;;;5045998;23;20640;-77
2024/02/10 00:57:37;;;;;;;0.60;0.60;;;;;;;;;;5023672;28;20211;-78
2024/02/10 01:00:06;;;;;;;0.82;0.82;;;;;;;;;;5038766;28;20238;-77
2024/02/10 01:02:34;;;;;;;0.80;0.80;;;;;;;;;;5039275;28;20227;-77
2024/02/10 01:05:01;;;;;;;0.80;0.80;;;;;;;;;;5038191;28;20238;-79
2024/02/10 01:07:30;;;;;;;0.95;0.95;;;;;;;;;;5039070;28;20237;-78
2024/02/10 01:09:57;;;;;;;0.68;0.65;;;;;;;;;;5048116;28;20241;-78
2024/02/10 01:12:26;;;;;;;0.90;0.82;;;;;;;;;;5039244;28;20260;-78
2024/02/10 01:14:55;;;;;;;0.88;0.88;;;;;;;;;;5039160;28;20317;-78
2024/02/10 01:17:24;;;;;;;0.70;0.70;;;;;;;;;;5038988;28;20202;-78
2024/02/10 01:19:54;;;;;;;0.90;0.90;;;;;;;;;;5040440;28;20240;-78
2024/02/10 01:22:23;;;;;;;0.82;0.82;;;;;;;;;;5044860;28;20303;-78
2024/02/10 01:24:53;;;;;;;0.98;0.98;;;;;;;;;;5039352;28;20276;-78
2024/02/10 01:27:21;;;;;;;0.93;0.93;;;;;;;;;;5038839;28;20214;-78
2024/02/10 01:29:50;;;;;;;0.80;0.80;;;;;;;;;;5047702;28;20732;-78
2024/02/10 01:32:19;;;;;;;0.93;0.93;;;;;;;;;;5046772;28;20209;-78
2024/02/10 01:34:48;;;;;;;1.00;1.00;;;;;;;;;;5038615;28;20643;-78
2024/02/10 01:37:17;;;;;;;1.00;1.00;;;;;;;;;;5043206;28;20303;-78
2024/02/10 01:39:45;;;;;;;1.33;1.23;;;;;;;;;;5041431;28;20206;-78
2024/02/10 01:42:15;;;;;;;0.90;0.90;;;;;;;;;;5038165;28;20207;-78
2024/02/10 01:44:43;;;;;;;0.90;0.90;;;;;;;;;;5038771;28;20280;-77
2024/02/10 01:47:12;;;;;;;0.90;0.90;;;;;;;;;;5046167;28;20633;-78
2024/02/10 01:49:41;;;;;;;0.80;0.80;;;;;;;;;;5038076;28;20206;-78
2024/02/10 01:52:09;;;;;;;1.02;1.02;;;;;;;;;;5037763;28;20229;-77
2024/02/10 01:54:38;;;;;;;1.10;1.10;;;;;;;;;;5037348;28;20234;-79
2024/02/10 01:57:07;;;;;;;1.50;1.40;;;;;;;;;;5045561;28;20206;-78
2024/02/10 01:59:36;;;;;;;1.40;1.30;;;;;;;;;;5037883;28;20714;-78
2024/02/10 02:02:04;;;;;;;1.10;1.10;;;;;;;;;;5043130;28;20207;-78
2024/02/10 02:04:35;;;;;;;1.48;1.38;;;;;;;;;;5032812;28;20226;-78
2024/02/10 02:07:04;;;;;;;1.25;1.10;;;;;;;;;;5039030;28;20202;-76
2024/02/10 02:09:31;;;;;;;1.25;1.20;;;;;;;;;;5038901;28;20221;-78
2024/02/10 02:11:59;;;;;;;1.10;1.00;;;;;;;;;;5037233;28;20293;-78
2024/02/10 02:14:26;;;;;;;1.30;1.30;;;;;;;;;;5037887;28;20708;-78
2024/02/10 02:16:55;;;;;;;1.10;1.10;;;;;;;;;;5037788;28;20206;-77
2024/02/10 02:19:23;;;;;;;1.10;1.10;;;;;;;;;;5037473;28;20230;-77
2024/02/10 02:21:52;;;;;;;1.30;1.27;;;;;;;;;;5037633;28;20305;-78
2024/02/10 02:24:21;;;;;;;1.20;1.20;;;;;;;;;;5042627;28;20226;-78
2024/02/10 02:26:48;;;;;;;0.60;0.60;;;;;;;;;;5040066;28;20210;-78
2024/02/10 02:29:16;;;;;;;1.30;1.25;;;;;;;;;;5038370;28;20716;-77
2024/02/10 02:31:43;;;;;;;1.13;1.13;;;;;;;;;;5037938;28;20206;-80
2024/02/10 02:34:11;;;;;;;0.88;0.88;;;;;;;;;;5040950;28;20316;-80
2024/02/10 02:36:39;;;;;;;1.30;1.25;;;;;;;;;;5041684;28;20206;-80
2024/02/10 02:39:08;;;;;;;0.93;0.93;;;;;;;;;;5029786;28;20267;-78
2024/02/10 02:41:37;;;;;;;1.10;1.10;;;;;;;;;;5037708;28;20657;-80
2024/02/10 02:44:05;;;;;;;0.88;0.88;;;;;;;;;;5036487;28;20236;-79
2024/02/10 02:46:34;;;;;;;0.90;0.90;;;;;;;;;;5037083;28;20671;-80
2024/02/10 02:49:01;;;;;;;0.95;0.95;;;;;;;;;;5045541;28;20326;-79
2024/02/10 02:51:29;;;;;;;1.95;1.27;;;;;;;;;;5037253;28;20274;-79
2024/02/10 02:53:57;;;;;;;0.90;0.90;;;;;;;;;;5037046;28;20218;-80
2024/02/10 02:56:25;;;;;;;1.15;1.10;;;;;;;;;;5037543;28;20241;-80
2024/02/10 02:58:56;;;;;;;0.80;0.80;;;;;;;;;;5045376;28;20206;-79
2024/02/10 03:01:24;;;;;;;0.90;0.90;;;;;;;;;;5037155;28;20285;-79
2024/02/10 03:03:52;;;;;;;0.80;0.77;;;;;;;;;;5046334;28;20222;-79
2024/02/10 03:06:20;;;;;;;0.65;0.65;;;;;;;;;;5043340;28;20206;-80
2024/02/10 03:08:49;;;;;;;1.25;1.25;;;;;;;;;;5045187;28;20202;-79
2024/02/10 03:11:19;;;;;;;1.00;1.00;;;;;;;;;;5048792;28;20682;-79
2024/02/10 03:13:47;;;;;;;1.45;1.35;;;;;;;;;;5048113;28;20205;-80
2024/02/10 03:16:18;;;;;;;1.50;1.40;;;;;;;;;;5037140;28;20249;-80
2024/02/10 03:18:46;;;;;;;1.55;1.45;;;;;;;;;;5037382;28;20214;-80
2024/02/10 03:21:14;;;;;;;1.30;1.30;;;;;;;;;;5045386;28;20210;-79
2024/02/10 03:23:44;;;;;;;1.70;1.60;;;;;;;;;;5036170;28;20678;-78
2024/02/10 03:26:12;;;;;;;1.40;1.30;;;;;;;;;;5036991;28;20711;-80
2024/02/10 03:28:40;;;;;;;1.65;1.55;;;;;;;;;;5045030;28;20206;-78
2024/02/10 03:31:08;;;;;;;1.73;1.63;;;;;;;;;;5044679;28;20290;-80
2024/02/10 03:33:36;;;;;;;1.45;1.35;;;;;;;;;;5036835;28;20209;-80
2024/02/10 03:36:05;;;;;;;1.73;1.63;;;;;;;;;;5044485;28;20650;-79
2024/02/10 03:38:32;;;;;;;1.15;1.15;;;;;;;;;;5036170;28;20727;-79
2024/02/10 03:41:00;;;;;;;1.42;1.33;;;;;;;;;;5036314;28;20212;-79
2024/02/10 03:43:27;;;;;;;1.50;1.40;;;;;;;;;;5044689;28;20208;-82
2024/02/10 03:45:54;;;;;;;1.98;1.88;;;;;;;;;;5036011;28;20234;-80
2024/02/10 03:48:22;;;;;;;1.75;1.65;;;;;;;;;;5036726;28;20216;-79
2024/02/10 03:50:51;;;;;;;1.42;1.33;;;;;;;;;;5036099;28;20244;-79
2024/02/10 03:53:18;;;;;;;1.40;1.30;;;;;;;;;;5036209;28;20202;-79
2024/02/10 03:55:46;;;;;;;1.35;1.33;;;;;;;;;;5044144;28;20250;-79
2024/02/10 03:58:16;;;;;;;1.30;1.30;;;;;;;;;;5035507;28;20664;-80
2024/02/10 04:00:44;;;;;;;2.78;1.70;;;;;;;;;;5038295;28;20216;-79
2024/02/10 04:03:12;;;;;;;1.38;1.30;;;;;;;;;;5050370;28;20262;-79
2024/02/10 04:05:40;;;;;;;1.50;1.40;;;;;;;;;;5066594;28;20739;-77
2024/02/10 04:08:09;;;;;;;1.40;1.40;;;;;;;;;;5038167;28;20229;-79
2024/02/10 04:10:37;;;;;;;1.55;1.50;;;;;;;;;;5046517;28;20248;-78
2024/02/10 04:13:09;;;;;;;2.00;1.90;;;;;;;;;;5057416;28;20273;-78
2024/02/10 04:15:37;;;;;;;2.03;1.92;;;;;;;;;;5048878;28;20249;-77
2024/02/10 04:18:05;;;;;;;1.80;1.70;;;;;;;;;;5064211;28;20228;-78
2024/02/10 04:20:33;;;;;;;2.00;1.90;;;;;;;;;;5061261;28;20210;-77
2024/02/10 04:23:03;;;;;;;1.90;1.80;;;;;;;;;;5049989;28;20233;-79
2024/02/10 04:25:32;;;;;;;1.85;1.75;;;;;;;;;;5048752;28;20643;-79
2024/02/10 04:28:02;;;;;;;2.45;2.25;;;;;;;;;;5053613;28;20202;-81
2024/02/10 04:30:31;;;;;;;1.95;1.85;;;;;;;;;;5056627;28;20202;-79
2024/02/10 04:32:58;;;;;;;2.42;2.22;;;;;;;;;;5052670;28;20206;-78
2024/02/10 04:35:26;;;;;;;2.47;2.28;;;;;;;;;;5056935;28;20674;-79
2024/02/10 04:37:55;;;;;;;2.60;2.40;;;;;;;;;;5059261;28;20212;-80
2024/02/10 04:40:25;;;;;;;1.90;1.80;;;;;;;;;;5049967;28;20202;-80
2024/02/10 04:42:55;;;;;;;2.42;2.22;;;;;;;;;;5043866;28;20215;-79
2024/02/10 04:45:30;;;;;;;2.78;2.58;;;;;;;;;;5055878;28;20290;-80
2024/02/10 04:47:58;;;;;;;2.67;2.47;;;;;;;;;;5060803;28;20214;-79
2024/02/10 04:50:28;;;;;;;3.90;2.25;;;;;;;;;;5055838;28;20266;-79
2024/02/10 04:52:56;;;;;;;2.47;2.28;;;;;;;;;;5060995;28;20210;-78
2024/02/10 04:55:24;;;;;;;1.80;1.70;;;;;;;;;;5049167;28;20240;-79
2024/02/10 04:57:52;;;;;;;2.08;1.88;;;;;;;;;;5043308;28;20236;-79
2024/02/10 05:00:23;;;;;;;2.15;2.05;;;;;;;;;;5052413;28;20647;-78
2024/02/10 05:02:52;;;;;;;2.15;2.03;;;;;;;;;;5059735;28;20672;-78
2024/02/10 05:05:20;;;;;;;2.78;2.10;;;;;;;;;;5049334;28;20252;-78
2024/02/10 05:07:51;;;;;;;3.05;2.85;;;;;;;;;;5052613;28;20210;-78
2024/02/10 05:10:19;;;;;;;2.78;2.58;;;;;;;;;;5043391;28;20214;-78
2024/02/10 05:12:47;;;;;;;3.00;2.80;;;;;;;;;;5043338;28;20209;-78
2024/02/10 05:15:18;;;;;;;2.65;2.45;;;;;;;;;;5042906;28;20226;-78
2024/02/10 05:17:49;;;;;;;2.90;2.70;;;;;;;;;;5042952;28;20238;-78
2024/02/10 05:20:19;;;;;;;2.72;2.53;;;;;;;;;;5043034;28;20294;-78
2024/02/10 05:22:48;;;;;;;2.63;2.42;;;;;;;;;;5051031;28;20252;-79
2024/02/10 05:25:15;;;;;;;2.65;2.45;;;;;;;;;;5049280;28;20233;-79
2024/02/10 05:27:45;;;;;;;3.55;3.25;;;;;;;;;;5050323;28;20198;-78
2024/02/10 05:30:18;;;;;;;3.65;3.35;;;;;;;;;;5053765;28;20295;-78
2024/02/10 05:32:49;;;;;;;3.05;2.85;;;;;;;;;;5052611;28;20198;-80
2024/02/10 05:35:19;;;;;;;2.95;2.65;;;;;;;;;;5046646;28;20236;-79
2024/02/10 05:37:48;;;;;;;3.40;3.10;;;;;;;;;;5052870;28;20202;-79
2024/02/10 05:40:15;;;;;;;3.42;3.22;;;;;;;;;;5046326;28;20682;-78
2024/02/10 05:42:47;;;;;;;4.85;3.30;;;;;;;;;;5044528;28;20238;-79
2024/02/10 05:45:17;;;;;;;3.28;2.95;;;;;;;;;;5046477;28;20241;-78
2024/02/10 05:47:45;;;;;;;2.50;2.30;;;;;;;;;;5045358;28;20207;-78
2024/02/10 05:50:15;;;;;;;2.38;2.17;;;;;;;;;;5041741;28;20213;-78
2024/02/10 05:52:43;;;;;;;2.60;2.40;;;;;;;;;;5042298;28;20293;-79
2024/02/10 05:55:15;;;;;;;2.97;2.78;;;;;;;;;;5046053;28;20237;-79
2024/02/10 05:57:43;;;;;;;2.78;2.58;;;;;;;;;;5054648;28;20210;-78
2024/02/10 06:00:12;;;;;;;2.55;2.35;;;;;;;;;;5046656;28;20212;-78
2024/02/10 06:02:41;;;;;;;3.03;2.83;;;;;;;;;;5053265;28;20206;-79
2024/02/10 06:05:11;;;;;;;2.33;2.17;;;;;;;;;;5036567;28;20229;-78
2024/02/10 06:07:41;;;;;;;1.90;1.80;;;;;;;;;;5038362;28;20233;-77
2024/02/10 06:10:12;;;;;;;2.72;2.53;;;;;;;;;;5017527;28;20199;-78
2024/02/10 06:12:41;;;;;;;2.65;2.42;;;;;;;;;;5017098;28;20191;-79
2024/02/10 06:15:10;;;;;;;2.13;2.03;;;;;;;;;;5017318;28;20233;-78
2024/02/10 06:17:41;;;;;;;2.40;2.20;;;;;;;;;;5017438;28;20199;-79
2024/02/10 06:20:13;;;;;;;2.25;2.05;;;;;;;;;;5017716;28;20203;-79
2024/02/10 06:22:46;;;;;;;2.00;1.90;;;;;;;;;;5017595;28;20227;-78
2024/02/10 06:25:15;;;;;;;2.13;2.03;;;;;;;;;;5017148;28;20586;-79
2024/02/10 06:27:45;;;;;;;2.10;2.00;;;;;;;;;;5017246;28;20684;-79
2024/02/10 06:30:16;;;;;;;1.98;1.88;;;;;;;;;;5017511;28;20596;-78
2024/02/10 06:32:44;;;;;;;1.90;1.80;;;;;;;;;;5016764;28;20191;-78
2024/02/10 06:35:13;;;;;;;1.90;1.80;;;;;;;;;;5016926;28;20225;-79
2024/02/10 06:37:46;;;;;;;1.90;1.80;;;;;;;;;;5017278;28;20206;-78
2024/02/10 06:40:14;;;;;;;2.90;2.17;;;;;;;;;;5016835;28;20190;-79
2024/02/10 06:42:42;;;;;;;1.67;1.58;;;;;;;;;;5015718;28;20202;-79
2024/02/10 06:45:14;;;;;;;2.55;2.40;;;;;;;;;;5016790;28;20592;-79
2024/02/10 06:47:42;;;;;;;1.85;1.75;;;;;;;;;;5016519;28;20207;-79
2024/02/10 06:50:11;;;;;;;1.63;1.52;;;;;;;;;;5016461;28;20203;-77
2024/02/10 06:52:39;;;;;;;2.17;1.88;;;;;;;;;;5016426;28;20206;-79
2024/02/10 06:55:11;;;;;;;1.65;1.55;;;;;;;;;;5021814;28;20240;-78
2024/02/10 06:57:41;;;;;;;2.08;1.98;;;;;;;;;;5042364;28;20256;-78
2024/02/10 07:00:10;;;;;;;2.00;1.90;;;;;;;;;;5041807;28;20206;-78
2024/02/10 07:02:42;;;;;;;1.90;1.80;;;;;;;;;;5041847;28;20211;-78
2024/02/10 07:05:11;;;;;;;2.65;2.10;;;;;;;;;;5042270;28;20222;-78
2024/02/10 07:07:41;;;;;;;3.22;2.15;;;;;;;;;;5041987;28;20232;-78
2024/02/10 07:10:14;;;;;;;2.35;2.25;;;;;;;;;;5041606;28;20206;-78
2024/02/10 07:12:43;;;;;;;2.55;2.35;;;;;;;;;;5040755;28;20219;-77
2024/02/10 07:15:14;;;;;;;2.10;2.00;;;;;;;;;;5040465;28;20712;-78
2024/02/10 07:17:43;;;;;;;1.35;1.30;;;;;;;;;;5040523;28;20202;-78
2024/02/10 07:20:15;;;;;;;2.30;2.10;;;;;;;;;;5040439;28;20203;-78
2024/02/10 07:22:42;;;;;;;2.03;1.92;;;;;;;;;;5040533;28;20209;-78
2024/02/10 07:25:12;;;;;;;2.70;2.30;;;;;;;;;;5039788;28;20222;-78
2024/02/10 07:27:39;;;;;;;1.80;1.70;;;;;;;;;;5040401;28;20226;-78
2024/02/10 07:30:10;;;;;;;1.83;1.73;;;;;;;;;;5040434;28;20208;-78
2024/02/10 07:32:37;;;;;;;2.53;2.33;;;;;;;;;;5040654;28;20198;-77
2024/02/10 07:35:06;;;;;;;2.20;2.00;;;;;;;;;;5040015;28;20227;-78
2024/02/10 07:37:34;;;;;;;1.75;1.65;;;;;;;;;;5040271;28;20229;-78
2024/02/10 07:40:02;;;;;;;1.80;1.70;;;;;;;;;;5040114;28;20835;-78
2024/02/10 07:42:31;;;;;;;1.42;1.33;;;;;;;;;;5039635;28;20206;-78
2024/02/10 07:44:59;;;;;;;2.53;2.33;;;;;;;;;;5040388;28;20224;-77
2024/02/10 07:47:26;;;;;;;1.63;1.52;;;;;;;;;;5039648;28;20252;-78
2024/02/10 07:49:54;;;;;;;1.58;1.48;;;;;;;;;;5040006;28;20210;-78
2024/02/10 07:52:22;;;;;;;1.63;1.52;;;;;;;;;;5039221;28;20260;-77
2024/02/10 07:54:50;;;;;;;1.52;1.42;;;;;;;;;;5038387;28;20249;-77
2024/02/10 07:57:20;;;;;;;1.65;1.55;;;;;;;;;;5043525;28;20201;-78
2024/02/10 07:59:50;;;;;;;2.28;2.08;;;;;;;;;;5040954;28;20213;-78
2024/02/10 08:02:21;;;;;;;2.00;1.80;;;;;;;;;;5038508;28;20214;-77
2024/02/10 08:04:51;;;;;;;2.17;2.00;;;;;;;;;;5038869;28;20226;-78
2024/02/10 08:07:19;;;;;;;2.08;1.98;;;;;;;;;;5039569;28;20253;-78
2024/02/10 08:09:47;;;;;;;1.80;1.70;;;;;;;;;;5039736;28;20249;-78
2024/02/10 08:12:17;;;;;;;2.05;1.90;;;;;;;;;;5039613;28;20265;-77
2024/02/10 08:14:47;;;;;;;2.67;2.47;;;;;;;;;;5039154;28;20229;-78
2024/02/10 08:17:16;;;;;;;2.30;2.10;;;;;;;;;;5039118;28;20194;-77
2024/02/10 08:19:43;;;;;;;2.00;1.90;;;;;;;;;;5039239;28;20206;-78
2024/02/10 08:22:11;;;;;;;1.80;1.70;;;;;;;;;;5039619;28;20664;-78
2024/02/10 08:24:39;;;;;;;2.40;2.20;;;;;;;;;;5039068;28;20293;-78
2024/02/10 08:27:08;;;;;;;1.70;1.60;;;;;;;;;;5039163;28;20240;-78
2024/02/10 08:29:36;;;;;;;1.73;1.63;;;;;;;;;;5038372;28;20216;-78
2024/02/10 08:32:04;;;;;;;1.60;1.50;;;;;;;;;;5039280;28;20210;-78
2024/02/10 08:34:35;;;;;;;1.88;1.77;;;;;;;;;;5038688;28;20597;-78
2024/02/10 08:37:04;;;;;;;1.80;1.70;;;;;;;;;;5039243;28;20190;-78
2024/02/10 08:39:31;;;;;;;2.47;2.28;;;;;;;;;;5039970;28;20221;-78
2024/02/10 08:42:00;;;;;;;1.83;1.73;;;;;;;;;;5040702;28;20289;-77
2024/02/10 08:44:29;;;;;;;1.70;1.60;;;;;;;;;;5040047;28;20706;-78
2024/02/10 08:46:57;;;;;;;2.20;2.00;;;;;;;;;;5040256;28;20218;-77
2024/02/10 08:49:24;;;;;;;1.83;1.73;;;;;;;;;;5040839;28;20290;-78
2024/02/10 08:51:54;;;;;;;2.05;1.95;;;;;;;;;;5039894;28;20278;-77
2024/02/10 08:54:21;;;;;;;2.15;1.80;;;;;;;;;;5039520;28;20237;-77
2024/02/10 08:56:49;;;;;;;2.95;1.92;;;;;;;;;;5039125;28;20210;-77
2024/02/10 08:59:16;;;;;;;2.30;2.20;;;;;;;;;;5052320;28;20208;-78
2024/02/10 09:01:44;;;;;;;1.55;1.45;;;;;;;;;;5050421;28;20275;-78
2024/02/10 09:04:11;;;;;;;3.05;2.10;;;;;;;;;;5037631;28;20258;-78
2024/02/10 09:06:39;;;;;;;1.60;1.50;;;;;;;;;;5039787;28;20230;-77
2024/02/10 09:09:10;;;;;;;1.85;1.75;;;;;;;;;;5052267;28;20236;-78
2024/02/10 09:11:39;;;;;;;1.80;1.70;;;;;;;;;;5042678;28;20213;-76
2024/02/10 09:14:08;;;;;;;2.35;2.15;;;;;;;;;;5042191;28;20234;-78
2024/02/10 09:16:35;;;;;;;2.30;2.10;;;;;;;;;;5043091;28;20294;-78
2024/02/10 09:19:03;;;;;;;2.67;2.47;;;;;;;;;;5042764;28;20241;-78
2024/02/10 09:21:30;;;;;;;3.35;2.50;;;;;;;;;;5050609;28;20225;-78
2024/02/10 09:23:59;;;;;;;2.80;2.60;;;;;;;;;;5049909;28;20256;-78
2024/02/10 09:26:28;;;;;;;3.72;1.90;;;;;;;;;;5042417;28;20213;-78
2024/02/10 09:28:55;;;;;;;2.15;2.03;;;;;;;;;;5042475;28;20602;-77
2024/02/10 09:31:24;;;;;;;2.10;2.00;;;;;;;;;;5042025;28;20210;-78
2024/02/10 09:33:52;;;;;;;2.35;2.25;;;;;;;;;;5042754;28;20234;-78
2024/02/10 09:36:19;;;;;;;1.75;1.65;;;;;;;;;;5048396;28;20274;-78
2024/02/10 09:38:47;;;;;;;1.70;1.60;;;;;;;;;;5042060;28;20194;-78
2024/02/10 09:41:15;;;;;;;1.55;1.45;;;;;;;;;;5042039;28;20229;-78
2024/02/10 09:43:46;;;;;;;1.50;1.40;;;;;;;;;;5041496;28;20269;-77
2024/02/10 09:46:13;;;;;;;1.42;1.33;;;;;;;;;;5042053;28;20713;-78
2024/02/10 09:48:44;;;;;;;1.50;1.40;;;;;;;;;;5041006;28;20312;-78
2024/02/10 09:51:12;;;;;;;1.67;1.58;;;;;;;;;;5037676;28;20613;-78
2024/02/10 09:53:41;;;;;;;1.60;1.50;;;;;;;;;;5054653;28;20245;-77
2024/02/10 09:56:12;;;;;;;1.77;1.20;;;;;;;;;;5026410;28;20202;-77
2024/02/10 09:58:43;;;;;;;1.45;1.35;;;;;;;;;;5042632;28;20199;-78
2024/02/10 10:01:13;;;;;;;1.35;1.25;;;;;;;;;;5050655;28;20293;-78
2024/02/10 10:03:41;;;;;;;1.55;1.45;;;;;;;;;;5057200;28;20233;-78
2024/02/10 10:06:10;;;;;;;1.58;1.48;;;;;;;;;;5048648;28;20210;-77
2024/02/10 10:08:38;;;;;;;1.42;1.33;;;;;;;;;;5041073;28;20629;-77
2024/02/10 10:11:06;;;;;;;1.42;1.33;;;;;;;;;;5044086;28;20211;-78
2024/02/10 10:13:35;;;;;;;1.80;1.70;;;;;;;;;;5053502;28;20293;-77
2024/02/10 10:16:05;;;;;;;2.42;1.50;;;;;;;;;;5041067;28;20213;-78
2024/02/10 10:18:34;;;;;;;1.33;1.23;;;;;;;;;;5041061;28;20206;-78
2024/02/10 10:21:04;;;;;;;2.45;1.15;;;;;;;;;;5040339;28;20210;-78
2024/02/10 10:23:32;;;;;;;1.33;1.15;;;;;;;;;;5039840;28;20208;-77
2024/02/10 10:25:59;;;;;;;1.08;1.08;;;;;;;;;;5039895;28;20216;-78
2024/02/10 10:28:27;;;;;;;1.38;1.27;;;;;;;;;;5041971;28;20317;-78
2024/02/10 10:30:54;;;;;;;1.65;1.55;;;;;;;;;;5042579;28;20584;-76
2024/02/10 10:33:25;;;;;;;1.50;1.40;;;;;;;;;;5042650;28;20286;-77
2024/02/10 10:35:55;;;;;;;1.00;1.00;;;;;;;;;;5044422;28;20226;-77
2024/02/10 10:38:23;;;;;;;1.10;1.10;;;;;;;;;;5063860;28;20221;-77
2024/02/10 10:40:52;;;;;;;1.30;1.30;;;;;;;;;;5045296;28;20206;-78
2024/02/10 10:43:22;;;;;;;0.93;0.93;;;;;;;;;;5043784;28;20245;-78
2024/02/10 10:45:52;;;;;;;1.02;1.02;;;;;;;;;;5042951;28;20290;-78
2024/02/10 10:48:19;;;;;;;1.02;0.90;;;;;;;;;;5047011;28;20229;-78
2024/02/10 10:50:55;;;;;;;0.90;0.90;;;;;;;;;;5044163;28;20654;-77
2024/02/10 10:53:27;;;;;;;0.88;0.88;;;;;;;;;;5042754;28;20205;-78
2024/02/10 10:55:59;;;;;;;0.80;0.80;;;;;;;;;;5042565;28;20250;-77
2024/02/10 10:58:32;;;;;;;0.82;0.82;;;;;;;;;;5042365;28;20198;-77
2024/02/10 11:01:02;;;;;;;1.15;1.05;;;;;;;;;;5050679;28;20224;-78
2024/02/10 11:03:29;;;;;;;0.85;0.85;;;;;;;;;;5048799;28;20194;-78
2024/02/10 11:05:58;;;;;;;1.85;0.95;;;;;;;;;;5051778;28;20607;-76
2024/02/10 11:08:27;;;;;;;1.00;1.00;;;;;;;;;;5042930;28;20234;-77
2024/02/10 11:11:01;;;;;;;1.27;1.27;;;;;;;;;;5042425;28;20273;-79
2024/02/10 11:13:30;;;;;;;1.80;1.70;;;;;;;;;;5042938;28;20202;-77
2024/02/10 11:16:10;;;;;;;1.38;1.27;;;;;;;;;;5041184;28;20238;-78
2024/02/10 11:18:38;;;;;;;1.35;1.25;;;;;;;;;;5041967;28;20256;-78
2024/02/10 11:21:16;;;;;;;0.90;0.90;;;;;;;;;;5050383;28;20729;-77
2024/02/10 11:23:43;;;;;;;0.93;0.93;;;;;;;;;;5041087;28;20206;-78
2024/02/10 11:26:12;;;;;;;1.50;1.40;;;;;;;;;;5050451;28;20293;-77
2024/02/10 11:28:40;;;;;;;0.80;0.80;;;;;;;;;;5041847;28;20245;-78
2024/02/10 11:31:10;;;;;;;1.00;1.00;;;;;;;;;;5041781;28;20290;-78
2024/02/10 11:33:39;;;;;;;1.08;1.08;;;;;;;;;;5042079;28;20272;-78
2024/02/10 11:36:10;;;;;;;0.75;0.75;;;;;;;;;;5042308;28;20206;-77
2024/02/10 11:38:38;;;;;;;1.05;1.05;;;;;;;;;;5043160;28;20214;-78
2024/02/10 11:41:07;;;;;;;0.95;0.95;;;;;;;;;;5050729;28;20236;-77
2024/02/10 11:43:36;;;;;;;0.93;0.93;;;;;;;;;;5042813;28;20210;-79
2024/02/10 11:46:03;;;;;;;1.15;1.05;;;;;;;;;;5042579;28;20228;-78
2024/02/10 11:48:31;;;;;;;1.77;1.08;;;;;;;;;;5041633;28;20612;-78
2024/02/10 11:50:59;;;;;;;0.85;0.85;;;;;;;;;;5054316;28;20213;-78
2024/02/10 11:53:28;;;;;;;0.85;0.85;;;;;;;;;;5054547;28;20296;-78
2024/02/10 11:55:55;;;;;;;1.95;0.88;;;;;;;;;;5044046;28;20324;-78
2024/02/10 11:58:24;;;;;;;1.20;1.10;;;;;;;;;;5052220;28;20740;-79
2024/02/10 12:00:51;;;;;;;1.00;1.00;;;;;;;;;;5046648;28;20221;-77
2024/02/10 12:03:23;;;;;;;1.33;1.23;;;;;;;;;;5064679;28;20278;-79
2024/02/10 12:05:50;;;;;;;0.85;0.85;;;;;;;;;;5055895;28;20221;-77
2024/02/10 12:08:18;;;;;;;0.80;0.80;;;;;;;;;;5051602;28;20293;-78
2024/02/10 12:10:47;;;;;;;1.38;1.27;;;;;;;;;;5054204;28;20296;-78
2024/02/10 12:13:20;;;;;;;0.90;0.90;;;;;;;;;;5049925;28;20629;-79
2024/02/10 12:15:48;;;;;;;0.93;0.80;;;;;;;;;;5047455;28;20222;-78
2024/02/10 12:18:17;;;;;;;0.82;0.82;;;;;;;;;;5045364;28;20573;-79
2024/02/10 12:20:47;;;;;;;1.02;1.00;;;;;;;;;;5045155;28;20616;-77
2024/02/10 12:23:15;;;;;;;0.75;0.75;;;;;;;;;;5052988;28;20220;-79
2024/02/10 12:25:42;;;;;;;1.60;1.08;;;;;;;;;;5053502;28;20250;-78
2024/02/10 12:28:11;;;;;;;1.00;0.82;;;;;;;;;;5053323;28;20270;-78
2024/02/10 12:30:39;;;;;;;0.90;0.90;;;;;;;;;;5052719;28;20261;-79
2024/02/10 12:33:06;;;;;;;0.90;0.90;;;;;;;;;;5036898;28;20273;-79
2024/02/10 12:35:36;;;;;;;0.80;0.80;;;;;;;;;;5053001;28;20289;-78
2024/02/10 12:38:03;;;;;;;1.00;1.00;;;;;;;;;;5045153;28;20625;-79
2024/02/10 12:40:31;;;;;;;0.80;0.80;;;;;;;;;;5046187;28;20254;-78
2024/02/10 12:42:58;;;;;;;0.98;0.98;;;;;;;;;;5057207;28;20642;-78
2024/02/10 12:45:27;;;;;;;2.50;0.70;;;;;;;;;;5055145;28;20312;-78
2024/02/10 12:47:55;;;;;;;1.25;1.10;;;;;;;;;;5059618;28;20205;-78
2024/02/10 12:50:22;;;;;;;0.90;0.90;;;;;;;;;;5057332;28;20270;-78
2024/02/10 12:52:50;;;;;;;0.80;0.80;;;;;;;;;;5058452;28;20292;-79
2024/02/10 12:55:17;;;;;;;0.95;0.95;;;;;;;;;;5058323;28;20230;-79
2024/02/10 12:57:45;;;;;;;1.17;1.13;;;;;;;;;;5048088;28;20228;-80
2024/02/10 13:00:22;;;;;;;1.90;1.00;;;;;;;;;;5046879;28;20230;-79
2024/02/10 13:02:52;;;;;;;1.05;1.05;;;;;;;;;;5047974;28;20201;-80
2024/02/10 13:05:20;;;;;;;0.52;0.52;;;;;;;;;;5039842;28;20231;-80
2024/02/10 13:07:48;;;;;;;0.60;0.60;;;;;;;;;;5043734;28;20198;-79
2024/02/10 13:10:21;;;;;;;0.70;0.70;;;;;;;;;;5039437;28;20206;-80
2024/02/10 13:12:51;;;;;;;0.68;0.63;;;;;;;;;;5039758;28;20248;-79
2024/02/10 13:15:19;;;;;;;0.80;0.80;;;;;;;;;;5045639;28;20229;-79
2024/02/10 13:17:50;;;;;;;1.40;1.20;;;;;;;;;;5038267;28;20640;-79
2024/02/10 13:20:18;;;;;;;0.90;0.90;;;;;;;;;;5038890;28;20286;-80
2024/02/10 13:22:47;;;;;;;1.27;1.23;;;;;;;;;;5038646;28;20215;-80
2024/02/10 13:25:14;;;;;;;4.43;1.98;;;;;;;;;;5046755;28;20764;-79
2024/02/10 13:27:44;;;;;;;0.80;0.80;;;;;;;;;;5046205;28;20297;-80
2024/02/10 13:30:13;;;;;;;0.90;0.90;;;;;;;;;;5031357;28;20202;-80
2024/02/10 13:32:42;;;;;;;1.20;0.90;;;;;;;;;;5039265;28;20302;-80
2024/02/10 13:35:14;;;;;;;1.00;0.93;;;;;;;;;;5033354;28;20226;-79
2024/02/10 14:05:04;;;;;;;1.40;1.30;;;;;;;;;;5036011;28;20226;-79
2024/02/10 14:08:33;;;;;;;3.15;2.05;;;;;;;;;;5037777;28;20206;-78
2024/02/10 14:10:55;;;;;;;1.15;1.10;;;;;;;;;;5036405;28;20210;-80
2024/02/10 14:13:25;;;;;;;1.30;1.20;;;;;;;;;;5043626;28;20268;-79
2024/02/10 14:15:56;;;;;;;2.55;1.27;;;;;;;;;;5037350;28;20318;-79
2024/02/10 14:18:26;;;;;;;2.13;1.17;;;;;;;;;;5037378;28;20657;-80
2024/02/10 14:20:59;;;;;;;1.23;1.10;;;;;;;;;;5036867;28;20249;-80
2024/02/10 14:23:29;;;;;;;1.27;1.15;;;;;;;;;;5036693;28;20202;-80
2024/02/10 14:25:58;;;;;;;1.10;1.00;;;;;;;;;;5037169;28;20718;-79
2024/02/10 14:28:36;;;;;;;1.10;1.00;;;;;;;;;;5045712;28;20217;-81
2024/02/10 14:31:04;;;;;;;1.50;1.40;;;;;;;;;;5039717;28;20209;-80
2024/02/10 14:33:33;;;;;;;2.78;2.38;;;;;;;;;;5042028;28;20210;-80
2024/02/10 14:36:08;;;;;;;1.60;1.50;;;;;;;;;;5037027;28;20209;-79
2024/02/10 14:38:48;;;;;;;1.00;1.00;;;;;;;;;;5037457;28;20209;-80
2024/02/10 14:41:16;;;;;;;1.58;1.27;;;;;;;;;;5029607;28;20217;-79
2024/02/10 14:43:44;;;;;;;2.10;1.20;;;;;;;;;;5036772;28;20293;-79
2024/02/10 14:46:12;;;;;;;1.20;1.20;;;;;;;;;;5036764;28;20213;-78
2024/02/10 14:48:42;;;;;;;1.33;1.23;;;;;;;;;;5036673;28;20210;-79
2024/02/10 14:51:11;;;;;;;2.15;1.42;;;;;;;;;;5036938;28;20202;-79
2024/02/10 14:53:42;;;;;;;1.35;1.33;;;;;;;;;;5044847;28;20206;-78
2024/02/10 14:56:13;;;;;;;0.90;0.90;;;;;;;;;;5036379;28;20660;-79
2024/02/10 14:58:42;;;;;;;1.17;1.08;;;;;;;;;;5036633;28;20204;-79
2024/02/10 15:01:10;;;;;;;1.60;1.35;;;;;;;;;;5036016;28;20230;-80
2024/02/10 15:03:40;;;;;;;1.25;1.10;;;;;;;;;;5035197;28;20210;-79
2024/02/10 15:06:18;;;;;;;1.15;1.02;;;;;;;;;;5027316;28;20210;-79
2024/02/10 15:08:49;;;;;;;1.00;1.00;;;;;;;;;;5036408;28;20730;-78
2024/02/10 15:11:16;;;;;;;1.13;1.00;;;;;;;;;;5036313;28;20297;-79
2024/02/10 15:13:44;;;;;;;1.23;1.13;;;;;;;;;;5035421;28;20213;-79
2024/02/10 15:16:18;;;;;;;1.23;1.10;;;;;;;;;;5040317;28;20201;-79
2024/02/10 15:18:46;;;;;;;1.80;1.20;;;;;;;;;;5047103;28;20227;-80
2024/02/10 15:21:14;;;;;;;1.00;0.98;;;;;;;;;;5043852;28;20232;-79